sensor_id;sensor_type;location;lat;lon;timestamp;P1;durP1;ratioP1;P2;durP2;ratioP2
14945;SDS011;7567;50.916;6.900;2022-10-12T00:00:47;11.47;;;6.90;;
14945;SDS011;7567;50.916;6.900;2022-10-12T00:03:14;10.60;;;6.40;;
14945;SDS011;7567;50.916;6.900;2022-10-12T00:05:41;10.70;;;6.70;;
14945;SDS011;7567;50.916;6.900;2022-10-12T00:08:06;10.37;;;6.70;;
14945;SDS011;7567;50.916;6.900;2022-10-12T00:10:32;9.53;;;6.50;;
14945;SDS011;7567;50.916;6.900;2022-10-12T00:12:58;9.60;;;6.97;;
14945;SDS011;7567;50.916;6.900;2022-10-12T00:15:25;9.83;;;6.40;;
14945;SDS011;7567;50.916;6.900;2022-10-12T00:17:51;11.07;;;7.30;;
14945;SDS011;7567;50.916;6.900;2022-10-12T00:20:18;10.80;;;6.97;;
14945;SDS011;7567;50.916;6.900;2022-10-12T00:22:43;13.83;;;7.63;;
14945;SDS011;7567;50.916;6.900;2022-10-12T00:25:09;10.20;;;7.37;;
14945;SDS011;7567;50.916;6.900;2022-10-12T00:27:35;8.50;;;7.10;;
14945;SDS011;7567;50.916;6.900;2022-10-12T00:30:01;12.53;;;6.57;;
14945;SDS011;7567;50.916;6.900;2022-10-12T00:32:26;8.27;;;6.83;;
14945;SDS011;7567;50.916;6.900;2022-10-12T00:34:52;13.00;;;7.77;;
14945;SDS011;7567;50.916;6.900;2022-10-12T00:37:18;9.50;;;7.37;;
14945;SDS011;7567;50.916;6.900;2022-10-12T00:39:44;12.60;;;6.90;;
14945;SDS011;7567;50.916;6.900;2022-10-12T00:42:10;12.83;;;7.00;;
14945;SDS011;7567;50.916;6.900;2022-10-12T00:44:44;11.17;;;8.00;;
14945;SDS011;7567;50.916;6.900;2022-10-12T00:47:25;7.97;;;6.67;;
14945;SDS011;7567;50.916;6.900;2022-10-12T00:52:37;9.87;;;7.10;;
14945;SDS011;7567;50.916;6.900;2022-10-12T00:55:08;9.70;;;6.50;;
14945;SDS011;7567;50.916;6.900;2022-10-12T00:57:36;9.73;;;7.30;;
14945;SDS011;7567;50.916;6.900;2022-10-12T01:00:04;10.40;;;7.10;;
14945;SDS011;7567;50.916;6.900;2022-10-12T01:02:32;10.87;;;6.40;;
14945;SDS011;7567;50.916;6.900;2022-10-12T01:05:00;8.77;;;7.07;;
14945;SDS011;7567;50.916;6.900;2022-10-12T01:07:26;10.10;;;6.40;;
14945;SDS011;7567;50.916;6.900;2022-10-12T01:09:52;8.73;;;6.67;;
14945;SDS011;7567;50.916;6.900;2022-10-12T01:12:18;10.47;;;7.37;;
14945;SDS011;7567;50.916;6.900;2022-10-12T01:14:45;8.60;;;6.47;;
14945;SDS011;7567;50.916;6.900;2022-10-12T01:17:18;10.50;;;6.53;;
14945;SDS011;7567;50.916;6.900;2022-10-12T01:23:13;9.73;;;6.23;;
14945;SDS011;7567;50.916;6.900;2022-10-12T01:25:50;10.27;;;6.03;;
14945;SDS011;7567;50.916;6.900;2022-10-12T01:28:49;9.30;;;5.87;;
14945;SDS011;7567;50.916;6.900;2022-10-12T01:31:35;9.67;;;6.10;;
14945;SDS011;7567;50.916;6.900;2022-10-12T01:34:21;11.03;;;6.43;;
14945;SDS011;7567;50.916;6.900;2022-10-12T01:39:54;7.90;;;6.30;;
14945;SDS011;7567;50.916;6.900;2022-10-12T01:42:30;9.00;;;6.63;;
14945;SDS011;7567;50.916;6.900;2022-10-12T01:45:02;8.00;;;5.97;;
14945;SDS011;7567;50.916;6.900;2022-10-12T01:47:30;9.43;;;6.30;;
14945;SDS011;7567;50.916;6.900;2022-10-12T01:49:57;9.17;;;6.70;;
14945;SDS011;7567;50.916;6.900;2022-10-12T01:52:27;10.13;;;6.00;;
14945;SDS011;7567;50.916;6.900;2022-10-12T01:55:21;11.63;;;7.03;;
14945;SDS011;7567;50.916;6.900;2022-10-12T02:01:00;12.23;;;5.47;;
14945;SDS011;7567;50.916;6.900;2022-10-12T02:03:47;10.30;;;6.30;;
14945;SDS011;7567;50.916;6.900;2022-10-12T02:06:31;10.43;;;6.33;;
14945;SDS011;7567;50.916;6.900;2022-10-12T02:09:05;6.87;;;5.33;;
14945;SDS011;7567;50.916;6.900;2022-10-12T02:11:37;9.73;;;5.63;;
14945;SDS011;7567;50.916;6.900;2022-10-12T02:14:10;9.53;;;6.00;;
14945;SDS011;7567;50.916;6.900;2022-10-12T02:16:50;10.33;;;6.87;;
14945;SDS011;7567;50.916;6.900;2022-10-12T02:19:26;10.43;;;5.93;;
14945;SDS011;7567;50.916;6.900;2022-10-12T02:21:55;9.87;;;6.30;;
14945;SDS011;7567;50.916;6.900;2022-10-12T02:24:25;8.43;;;6.57;;
14945;SDS011;7567;50.916;6.900;2022-10-12T02:26:52;7.33;;;6.03;;
14945;SDS011;7567;50.916;6.900;2022-10-12T02:29:22;9.60;;;6.37;;
14945;SDS011;7567;50.916;6.900;2022-10-12T02:31:57;7.07;;;5.27;;
14945;SDS011;7567;50.916;6.900;2022-10-12T02:34:36;6.20;;;5.60;;
14945;SDS011;7567;50.916;6.900;2022-10-12T02:37:08;8.07;;;5.83;;
14945;SDS011;7567;50.916;6.900;2022-10-12T02:39:49;9.43;;;6.10;;
14945;SDS011;7567;50.916;6.900;2022-10-12T02:42:23;7.83;;;6.00;;
14945;SDS011;7567;50.916;6.900;2022-10-12T02:44:55;6.50;;;5.70;;
14945;SDS011;7567;50.916;6.900;2022-10-12T02:47:24;13.60;;;6.17;;
14945;SDS011;7567;50.916;6.900;2022-10-12T02:49:53;8.30;;;5.83;;
14945;SDS011;7567;50.916;6.900;2022-10-12T02:52:22;9.83;;;6.27;;
14945;SDS011;7567;50.916;6.900;2022-10-12T02:54:48;8.33;;;6.03;;
14945;SDS011;7567;50.916;6.900;2022-10-12T02:57:14;6.40;;;5.33;;
14945;SDS011;7567;50.916;6.900;2022-10-12T02:59:41;7.93;;;6.10;;
14945;SDS011;7567;50.916;6.900;2022-10-12T03:02:07;9.30;;;5.73;;
14945;SDS011;7567;50.916;6.900;2022-10-12T03:04:35;8.00;;;5.97;;
14945;SDS011;7567;50.916;6.900;2022-10-12T03:07:01;10.57;;;5.60;;
14945;SDS011;7567;50.916;6.900;2022-10-12T03:09:27;9.17;;;5.67;;
14945;SDS011;7567;50.916;6.900;2022-10-12T03:11:53;7.90;;;5.80;;
14945;SDS011;7567;50.916;6.900;2022-10-12T03:14:19;7.77;;;5.27;;
14945;SDS011;7567;50.916;6.900;2022-10-12T03:16:46;7.10;;;5.40;;
14945;SDS011;7567;50.916;6.900;2022-10-12T03:19:13;8.20;;;6.07;;
14945;SDS011;7567;50.916;6.900;2022-10-12T03:21:39;9.63;;;5.77;;
14945;SDS011;7567;50.916;6.900;2022-10-12T03:24:05;8.80;;;5.73;;
14945;SDS011;7567;50.916;6.900;2022-10-12T03:26:31;8.80;;;5.83;;
14945;SDS011;7567;50.916;6.900;2022-10-12T03:28:58;9.90;;;5.83;;
14945;SDS011;7567;50.916;6.900;2022-10-12T03:31:24;5.97;;;5.13;;
14945;SDS011;7567;50.916;6.900;2022-10-12T03:33:50;10.23;;;6.23;;
14945;SDS011;7567;50.916;6.900;2022-10-12T03:36:16;8.23;;;5.70;;
14945;SDS011;7567;50.916;6.900;2022-10-12T03:38:42;7.70;;;4.93;;
14945;SDS011;7567;50.916;6.900;2022-10-12T03:41:08;6.57;;;5.23;;
14945;SDS011;7567;50.916;6.900;2022-10-12T03:43:34;10.57;;;5.50;;
14945;SDS011;7567;50.916;6.900;2022-10-12T03:46:00;8.33;;;5.43;;
14945;SDS011;7567;50.916;6.900;2022-10-12T03:48:26;7.47;;;5.60;;
14945;SDS011;7567;50.916;6.900;2022-10-12T03:50:52;9.97;;;5.60;;
14945;SDS011;7567;50.916;6.900;2022-10-12T03:53:18;8.30;;;6.40;;
14945;SDS011;7567;50.916;6.900;2022-10-12T03:55:44;8.07;;;5.70;;
14945;SDS011;7567;50.916;6.900;2022-10-12T03:58:11;9.70;;;5.87;;
14945;SDS011;7567;50.916;6.900;2022-10-12T04:00:37;7.43;;;5.53;;
14945;SDS011;7567;50.916;6.900;2022-10-12T04:03:03;10.33;;;6.13;;
14945;SDS011;7567;50.916;6.900;2022-10-12T04:05:30;10.00;;;6.13;;
14945;SDS011;7567;50.916;6.900;2022-10-12T04:07:56;7.70;;;5.00;;
14945;SDS011;7567;50.916;6.900;2022-10-12T04:10:22;10.20;;;5.80;;
14945;SDS011;7567;50.916;6.900;2022-10-12T04:12:49;12.37;;;5.73;;
14945;SDS011;7567;50.916;6.900;2022-10-12T04:15:14;8.77;;;5.60;;
14945;SDS011;7567;50.916;6.900;2022-10-12T04:17:44;8.60;;;5.60;;
14945;SDS011;7567;50.916;6.900;2022-10-12T04:20:11;7.17;;;5.13;;
14945;SDS011;7567;50.916;6.900;2022-10-12T04:22:37;7.53;;;5.63;;
14945;SDS011;7567;50.916;6.900;2022-10-12T04:25:04;10.70;;;5.83;;
14945;SDS011;7567;50.916;6.900;2022-10-12T04:27:30;7.13;;;5.37;;
14945;SDS011;7567;50.916;6.900;2022-10-12T04:29:57;8.73;;;6.07;;
14945;SDS011;7567;50.916;6.900;2022-10-12T04:32:23;7.70;;;5.07;;
14945;SDS011;7567;50.916;6.900;2022-10-12T04:34:49;7.17;;;5.30;;
14945;SDS011;7567;50.916;6.900;2022-10-12T04:37:15;9.60;;;5.80;;
14945;SDS011;7567;50.916;6.900;2022-10-12T04:39:41;8.20;;;5.17;;
14945;SDS011;7567;50.916;6.900;2022-10-12T04:42:07;9.67;;;5.07;;
14945;SDS011;7567;50.916;6.900;2022-10-12T04:44:33;8.67;;;5.70;;
14945;SDS011;7567;50.916;6.900;2022-10-12T04:47:00;8.97;;;5.13;;
14945;SDS011;7567;50.916;6.900;2022-10-12T04:49:26;8.60;;;5.30;;
14945;SDS011;7567;50.916;6.900;2022-10-12T04:51:52;8.90;;;5.40;;
14945;SDS011;7567;50.916;6.900;2022-10-12T04:54:18;5.57;;;4.97;;
14945;SDS011;7567;50.916;6.900;2022-10-12T04:56:44;6.83;;;5.23;;
14945;SDS011;7567;50.916;6.900;2022-10-12T04:59:10;7.93;;;5.10;;
14945;SDS011;7567;50.916;6.900;2022-10-12T05:01:35;6.17;;;5.17;;
14945;SDS011;7567;50.916;6.900;2022-10-12T05:04:01;8.67;;;5.40;;
14945;SDS011;7567;50.916;6.900;2022-10-12T05:06:27;11.33;;;6.00;;
14945;SDS011;7567;50.916;6.900;2022-10-12T05:08:53;9.13;;;5.30;;
14945;SDS011;7567;50.916;6.900;2022-10-12T05:11:19;7.77;;;5.40;;
14945;SDS011;7567;50.916;6.900;2022-10-12T05:13:46;7.23;;;5.47;;
14945;SDS011;7567;50.916;6.900;2022-10-12T05:16:12;7.37;;;5.13;;
14945;SDS011;7567;50.916;6.900;2022-10-12T05:18:38;8.93;;;5.37;;
14945;SDS011;7567;50.916;6.900;2022-10-12T05:21:04;6.67;;;5.60;;
14945;SDS011;7567;50.916;6.900;2022-10-12T05:23:30;8.10;;;5.43;;
14945;SDS011;7567;50.916;6.900;2022-10-12T05:25:56;6.87;;;4.63;;
14945;SDS011;7567;50.916;6.900;2022-10-12T05:28:22;9.10;;;5.70;;
14945;SDS011;7567;50.916;6.900;2022-10-12T05:30:48;7.07;;;5.13;;
14945;SDS011;7567;50.916;6.900;2022-10-12T05:33:15;6.70;;;4.93;;
14945;SDS011;7567;50.916;6.900;2022-10-12T05:35:42;6.97;;;5.70;;
14945;SDS011;7567;50.916;6.900;2022-10-12T05:38:09;9.27;;;5.57;;
14945;SDS011;7567;50.916;6.900;2022-10-12T05:40:35;8.63;;;5.30;;
14945;SDS011;7567;50.916;6.900;2022-10-12T05:43:01;6.67;;;5.37;;
14945;SDS011;7567;50.916;6.900;2022-10-12T05:45:27;6.47;;;5.07;;
14945;SDS011;7567;50.916;6.900;2022-10-12T05:47:53;10.37;;;5.70;;
14945;SDS011;7567;50.916;6.900;2022-10-12T05:50:19;8.80;;;5.30;;
14945;SDS011;7567;50.916;6.900;2022-10-12T05:52:45;6.33;;;5.20;;
14945;SDS011;7567;50.916;6.900;2022-10-12T05:55:11;7.50;;;5.20;;
14945;SDS011;7567;50.916;6.900;2022-10-12T05:57:38;8.63;;;4.90;;
14945;SDS011;7567;50.916;6.900;2022-10-12T06:00:05;8.77;;;5.77;;
14945;SDS011;7567;50.916;6.900;2022-10-12T06:02:32;8.43;;;5.40;;
14945;SDS011;7567;50.916;6.900;2022-10-12T06:04:59;8.77;;;5.03;;
14945;SDS011;7567;50.916;6.900;2022-10-12T06:07:25;7.27;;;4.93;;
14945;SDS011;7567;50.916;6.900;2022-10-12T06:09:51;6.10;;;5.10;;
14945;SDS011;7567;50.916;6.900;2022-10-12T06:12:17;6.23;;;5.30;;
14945;SDS011;7567;50.916;6.900;2022-10-12T06:14:43;8.73;;;5.00;;
14945;SDS011;7567;50.916;6.900;2022-10-12T06:17:08;7.43;;;5.27;;
14945;SDS011;7567;50.916;6.900;2022-10-12T06:19:34;9.27;;;5.60;;
14945;SDS011;7567;50.916;6.900;2022-10-12T06:22:01;8.07;;;5.10;;
14945;SDS011;7567;50.916;6.900;2022-10-12T06:24:39;8.60;;;5.77;;
14945;SDS011;7567;50.916;6.900;2022-10-12T06:27:05;7.70;;;5.53;;
14945;SDS011;7567;50.916;6.900;2022-10-12T06:29:31;7.07;;;5.40;;
14945;SDS011;7567;50.916;6.900;2022-10-12T06:31:56;6.90;;;5.23;;
14945;SDS011;7567;50.916;6.900;2022-10-12T06:34:22;6.83;;;5.27;;
14945;SDS011;7567;50.916;6.900;2022-10-12T06:36:48;10.17;;;5.83;;
14945;SDS011;7567;50.916;6.900;2022-10-12T06:39:14;13.33;;;6.13;;
14945;SDS011;7567;50.916;6.900;2022-10-12T06:41:40;8.40;;;5.80;;
14945;SDS011;7567;50.916;6.900;2022-10-12T06:44:06;8.20;;;5.57;;
14945;SDS011;7567;50.916;6.900;2022-10-12T06:46:35;7.53;;;5.80;;
14945;SDS011;7567;50.916;6.900;2022-10-12T06:49:04;6.37;;;5.00;;
14945;SDS011;7567;50.916;6.900;2022-10-12T06:51:30;10.23;;;5.83;;
14945;SDS011;7567;50.916;6.900;2022-10-12T06:57:14;9.30;;;5.80;;
14945;SDS011;7567;50.916;6.900;2022-10-12T06:59:41;6.87;;;5.70;;
14945;SDS011;7567;50.916;6.900;2022-10-12T07:02:10;7.43;;;5.93;;
14945;SDS011;7567;50.916;6.900;2022-10-12T07:04:36;10.50;;;5.83;;
14945;SDS011;7567;50.916;6.900;2022-10-12T07:07:03;8.47;;;6.10;;
14945;SDS011;7567;50.916;6.900;2022-10-12T07:09:34;10.37;;;6.27;;
14945;SDS011;7567;50.916;6.900;2022-10-12T07:12:00;11.57;;;6.67;;
14945;SDS011;7567;50.916;6.900;2022-10-12T07:14:26;8.13;;;6.30;;
14945;SDS011;7567;50.916;6.900;2022-10-12T07:16:52;12.83;;;7.17;;
14945;SDS011;7567;50.916;6.900;2022-10-12T07:19:31;10.87;;;6.77;;
14945;SDS011;7567;50.916;6.900;2022-10-12T07:21:59;9.93;;;7.20;;
14945;SDS011;7567;50.916;6.900;2022-10-12T07:24:25;14.47;;;8.37;;
14945;SDS011;7567;50.916;6.900;2022-10-12T07:27:01;14.70;;;8.77;;
14945;SDS011;7567;50.916;6.900;2022-10-12T07:29:35;14.63;;;8.33;;
14945;SDS011;7567;50.916;6.900;2022-10-12T07:32:06;13.57;;;9.07;;
14945;SDS011;7567;50.916;6.900;2022-10-12T07:34:32;12.23;;;8.77;;
14945;SDS011;7567;50.916;6.900;2022-10-12T07:36:57;11.50;;;7.97;;
14945;SDS011;7567;50.916;6.900;2022-10-12T07:39:23;18.70;;;8.80;;
14945;SDS011;7567;50.916;6.900;2022-10-12T07:41:52;12.50;;;8.20;;
14945;SDS011;7567;50.916;6.900;2022-10-12T07:44:18;14.10;;;8.43;;
14945;SDS011;7567;50.916;6.900;2022-10-12T07:46:45;12.60;;;9.00;;
14945;SDS011;7567;50.916;6.900;2022-10-12T07:49:12;15.90;;;8.57;;
14945;SDS011;7567;50.916;6.900;2022-10-12T07:51:50;12.97;;;8.43;;
14945;SDS011;7567;50.916;6.900;2022-10-12T07:54:16;12.37;;;9.20;;
14945;SDS011;7567;50.916;6.900;2022-10-12T07:56:42;14.57;;;9.30;;
14945;SDS011;7567;50.916;6.900;2022-10-12T07:59:08;20.83;;;9.37;;
14945;SDS011;7567;50.916;6.900;2022-10-12T08:01:34;18.40;;;9.40;;
14945;SDS011;7567;50.916;6.900;2022-10-12T08:04:00;12.63;;;9.00;;
14945;SDS011;7567;50.916;6.900;2022-10-12T08:06:27;10.50;;;7.57;;
14945;SDS011;7567;50.916;6.900;2022-10-12T08:08:54;15.20;;;7.40;;
14945;SDS011;7567;50.916;6.900;2022-10-12T08:11:22;12.20;;;7.60;;
14945;SDS011;7567;50.916;6.900;2022-10-12T08:13:48;12.10;;;6.60;;
14945;SDS011;7567;50.916;6.900;2022-10-12T08:16:18;15.53;;;7.83;;
14945;SDS011;7567;50.916;6.900;2022-10-12T08:18:45;12.30;;;7.20;;
14945;SDS011;7567;50.916;6.900;2022-10-12T08:24:25;13.70;;;7.50;;
14945;SDS011;7567;50.916;6.900;2022-10-12T08:26:51;15.10;;;7.07;;
14945;SDS011;7567;50.916;6.900;2022-10-12T08:40:31;12.50;;;6.25;;
14945;SDS011;7567;50.916;6.900;2022-10-12T08:43:10;10.73;;;7.10;;
14945;SDS011;7567;50.916;6.900;2022-10-12T08:48:21;10.73;;;6.97;;
14945;SDS011;7567;50.916;6.900;2022-10-12T08:50:52;17.07;;;8.10;;
14945;SDS011;7567;50.916;6.900;2022-10-12T08:55:50;11.85;;;7.60;;
14945;SDS011;7567;50.916;6.900;2022-10-12T08:58:33;13.40;;;9.30;;
14945;SDS011;7567;50.916;6.900;2022-10-12T09:06:45;11.48;;;7.93;;
14945;SDS011;7567;50.916;6.900;2022-10-12T09:12:20;11.35;;;7.93;;
14945;SDS011;7567;50.916;6.900;2022-10-12T09:15:13;14.70;;;9.90;;
14945;SDS011;7567;50.916;6.900;2022-10-12T09:17:50;12.57;;;8.38;;
14945;SDS011;7567;50.916;6.900;2022-10-12T09:20:21;15.25;;;9.13;;
14945;SDS011;7567;50.916;6.900;2022-10-12T09:22:54;16.05;;;8.52;;
14945;SDS011;7567;50.916;6.900;2022-10-12T09:25:26;14.07;;;9.77;;
14945;SDS011;7567;50.916;6.900;2022-10-12T09:27:53;12.57;;;8.57;;
14945;SDS011;7567;50.916;6.900;2022-10-12T09:30:30;15.25;;;8.88;;
14945;SDS011;7567;50.916;6.900;2022-10-12T09:33:19;11.90;;;9.07;;
14945;SDS011;7567;50.916;6.900;2022-10-12T09:35:59;12.85;;;8.68;;
14945;SDS011;7567;50.916;6.900;2022-10-12T09:38:25;14.93;;;8.73;;
14945;SDS011;7567;50.916;6.900;2022-10-12T09:40:51;14.45;;;9.15;;
14945;SDS011;7567;50.916;6.900;2022-10-12T09:43:17;17.63;;;9.35;;
14945;SDS011;7567;50.916;6.900;2022-10-12T09:45:43;15.75;;;9.90;;
14945;SDS011;7567;50.916;6.900;2022-10-12T09:48:22;12.93;;;8.60;;
14945;SDS011;7567;50.916;6.900;2022-10-12T09:50:55;14.38;;;8.75;;
14945;SDS011;7567;50.916;6.900;2022-10-12T09:53:25;13.48;;;8.95;;
14945;SDS011;7567;50.916;6.900;2022-10-12T09:55:57;14.15;;;8.98;;
14945;SDS011;7567;50.916;6.900;2022-10-12T10:01:26;15.65;;;8.93;;
14945;SDS011;7567;50.916;6.900;2022-10-12T10:06:43;11.57;;;8.30;;
14945;SDS011;7567;50.916;6.900;2022-10-12T10:09:30;13.13;;;8.25;;
14945;SDS011;7567;50.916;6.900;2022-10-12T10:11:56;14.20;;;8.40;;
14945;SDS011;7567;50.916;6.900;2022-10-12T10:14:36;13.65;;;7.97;;
14945;SDS011;7567;50.916;6.900;2022-10-12T10:17:02;15.98;;;8.23;;
14945;SDS011;7567;50.916;6.900;2022-10-12T10:19:28;13.90;;;8.43;;
14945;SDS011;7567;50.916;6.900;2022-10-12T10:21:54;11.30;;;7.63;;
14945;SDS011;7567;50.916;6.900;2022-10-12T10:24:24;16.85;;;8.52;;
14945;SDS011;7567;50.916;6.900;2022-10-12T10:35:34;12.13;;;8.15;;
14945;SDS011;7567;50.916;6.900;2022-10-12T10:37:47;10.90;;;7.57;;
14945;SDS011;7567;50.916;6.900;2022-10-12T10:40:16;11.75;;;7.90;;
14945;SDS011;7567;50.916;6.900;2022-10-12T10:43:05;11.02;;;7.60;;
14945;SDS011;7567;50.916;6.900;2022-10-12T10:45:50;13.02;;;7.18;;
14945;SDS011;7567;50.916;6.900;2022-10-12T10:48:22;12.00;;;8.32;;
14945;SDS011;7567;50.916;6.900;2022-10-12T10:50:58;14.85;;;8.40;;
14945;SDS011;7567;50.916;6.900;2022-10-12T10:53:26;13.05;;;8.68;;
14945;SDS011;7567;50.916;6.900;2022-10-12T10:58:42;14.18;;;7.97;;
14945;SDS011;7567;50.916;6.900;2022-10-12T11:03:46;15.75;;;7.68;;
14945;SDS011;7567;50.916;6.900;2022-10-12T11:06:22;14.73;;;8.32;;
14945;SDS011;7567;50.916;6.900;2022-10-12T11:09:16;13.48;;;8.32;;
14945;SDS011;7567;50.916;6.900;2022-10-12T11:12:20;12.23;;;7.88;;
14945;SDS011;7567;50.916;6.900;2022-10-12T11:14:53;15.02;;;7.47;;
14945;SDS011;7567;50.916;6.900;2022-10-12T11:17:34;14.75;;;7.10;;
14945;SDS011;7567;50.916;6.900;2022-10-12T11:22:56;11.38;;;6.45;;
14945;SDS011;7567;50.916;6.900;2022-10-12T11:28:05;10.98;;;6.03;;
14945;SDS011;7567;50.916;6.900;2022-10-12T11:30:38;12.75;;;6.57;;
14945;SDS011;7567;50.916;6.900;2022-10-12T11:33:14;12.32;;;7.28;;
14945;SDS011;7567;50.916;6.900;2022-10-12T11:35:53;12.32;;;6.13;;
14945;SDS011;7567;50.916;6.900;2022-10-12T11:40:49;11.45;;;6.47;;
14945;SDS011;7567;50.916;6.900;2022-10-12T11:43:25;8.93;;;5.38;;
14945;SDS011;7567;50.916;6.900;2022-10-12T11:45:59;13.23;;;6.15;;
14945;SDS011;7567;50.916;6.900;2022-10-12T11:48:30;10.90;;;5.80;;
14945;SDS011;7567;50.916;6.900;2022-10-12T11:51:06;12.15;;;5.63;;
14945;SDS011;7567;50.916;6.900;2022-10-12T11:58:31;10.00;;;6.20;;
14945;SDS011;7567;50.916;6.900;2022-10-12T12:07:36;9.40;;;5.88;;
14945;SDS011;7567;50.916;6.900;2022-10-12T12:12:06;13.15;;;5.80;;
14945;SDS011;7567;50.916;6.900;2022-10-12T12:19:46;13.18;;;6.00;;
14945;SDS011;7567;50.916;6.900;2022-10-12T12:22:18;12.65;;;6.28;;
14945;SDS011;7567;50.916;6.900;2022-10-12T12:24:57;7.65;;;5.28;;
14945;SDS011;7567;50.916;6.900;2022-10-12T12:27:41;10.70;;;5.88;;
14945;SDS011;7567;50.916;6.900;2022-10-12T12:30:21;8.98;;;5.38;;
14945;SDS011;7567;50.916;6.900;2022-10-12T12:33:00;11.25;;;6.10;;
14945;SDS011;7567;50.916;6.900;2022-10-12T12:38:05;10.07;;;5.32;;
14945;SDS011;7567;50.916;6.900;2022-10-12T12:40:41;8.85;;;5.20;;
14945;SDS011;7567;50.916;6.900;2022-10-12T12:46:03;7.43;;;5.10;;
14945;SDS011;7567;50.916;6.900;2022-10-12T12:54:11;14.10;;;5.07;;
14945;SDS011;7567;50.916;6.900;2022-10-12T12:56:49;8.10;;;5.80;;
14945;SDS011;7567;50.916;6.900;2022-10-12T13:02:33;7.93;;;4.85;;
14945;SDS011;7567;50.916;6.900;2022-10-12T13:08:04;11.25;;;4.65;;
14945;SDS011;7567;50.916;6.900;2022-10-12T13:10:46;12.13;;;5.25;;
14945;SDS011;7567;50.916;6.900;2022-10-12T13:16:07;12.32;;;5.25;;
14945;SDS011;7567;50.916;6.900;2022-10-12T13:21:22;7.78;;;4.80;;
14945;SDS011;7567;50.916;6.900;2022-10-12T13:26:48;8.55;;;4.78;;
14945;SDS011;7567;50.916;6.900;2022-10-12T13:32:43;9.40;;;4.85;;
14945;SDS011;7567;50.916;6.900;2022-10-12T13:38:02;9.77;;;5.18;;
14945;SDS011;7567;50.916;6.900;2022-10-12T13:40:37;9.43;;;4.55;;
14945;SDS011;7567;50.916;6.900;2022-10-12T13:45:45;8.05;;;4.60;;
14945;SDS011;7567;50.916;6.900;2022-10-12T13:48:18;9.75;;;4.75;;
14945;SDS011;7567;50.916;6.900;2022-10-12T13:50:53;11.45;;;5.00;;
14945;SDS011;7567;50.916;6.900;2022-10-12T13:53:21;7.22;;;4.45;;
14945;SDS011;7567;50.916;6.900;2022-10-12T13:56:10;9.10;;;4.32;;
14945;SDS011;7567;50.916;6.900;2022-10-12T13:58:39;11.52;;;5.35;;
14945;SDS011;7567;50.916;6.900;2022-10-12T14:01:05;8.27;;;4.55;;
14945;SDS011;7567;50.916;6.900;2022-10-12T14:03:38;7.68;;;4.78;;
14945;SDS011;7567;50.916;6.900;2022-10-12T14:06:20;9.40;;;4.18;;
14945;SDS011;7567;50.916;6.900;2022-10-12T14:08:51;7.78;;;4.22;;
14945;SDS011;7567;50.916;6.900;2022-10-12T14:11:18;11.63;;;4.80;;
14945;SDS011;7567;50.916;6.900;2022-10-12T14:13:45;13.40;;;4.65;;
14945;SDS011;7567;50.916;6.900;2022-10-12T14:16:11;11.15;;;4.13;;
14945;SDS011;7567;50.916;6.900;2022-10-12T14:18:39;11.93;;;4.10;;
14945;SDS011;7567;50.916;6.900;2022-10-12T14:23:45;7.15;;;3.70;;
14945;SDS011;7567;50.916;6.900;2022-10-12T14:26:25;11.18;;;4.35;;
14945;SDS011;7567;50.916;6.900;2022-10-12T14:34:36;6.85;;;3.75;;
14945;SDS011;7567;50.916;6.900;2022-10-12T14:39:34;6.25;;;3.35;;
14945;SDS011;7567;50.916;6.900;2022-10-12T14:42:18;6.50;;;3.20;;
14945;SDS011;7567;50.916;6.900;2022-10-12T14:44:46;4.70;;;3.25;;
14945;SDS011;7567;50.916;6.900;2022-10-12T14:47:17;9.23;;;4.10;;
14945;SDS011;7567;50.916;6.900;2022-10-12T14:49:49;7.03;;;3.60;;
14945;SDS011;7567;50.916;6.900;2022-10-12T14:52:24;6.20;;;3.55;;
14945;SDS011;7567;50.916;6.900;2022-10-12T14:55:08;8.07;;;3.83;;
14945;SDS011;7567;50.916;6.900;2022-10-12T14:57:48;8.23;;;3.55;;
14945;SDS011;7567;50.916;6.900;2022-10-12T15:00:19;6.10;;;3.63;;
14945;SDS011;7567;50.916;6.900;2022-10-12T15:02:48;6.15;;;3.42;;
14945;SDS011;7567;50.916;6.900;2022-10-12T15:05:15;7.20;;;3.33;;
14945;SDS011;7567;50.916;6.900;2022-10-12T15:07:43;8.32;;;3.65;;
14945;SDS011;7567;50.916;6.900;2022-10-12T15:10:12;7.93;;;3.70;;
14945;SDS011;7567;50.916;6.900;2022-10-12T15:12:40;6.90;;;4.28;;
14945;SDS011;7567;50.916;6.900;2022-10-12T15:15:28;7.10;;;3.58;;
14945;SDS011;7567;50.916;6.900;2022-10-12T15:17:56;8.75;;;4.00;;
14945;SDS011;7567;50.916;6.900;2022-10-12T15:20:24;8.20;;;4.07;;
14945;SDS011;7567;50.916;6.900;2022-10-12T15:22:51;7.38;;;4.00;;
14945;SDS011;7567;50.916;6.900;2022-10-12T15:25:38;6.38;;;3.13;;
14945;SDS011;7567;50.916;6.900;2022-10-12T15:28:09;6.38;;;3.58;;
14945;SDS011;7567;50.916;6.900;2022-10-12T15:30:35;7.57;;;3.63;;
14945;SDS011;7567;50.916;6.900;2022-10-12T15:33:00;8.57;;;3.40;;
14945;SDS011;7567;50.916;6.900;2022-10-12T15:35:27;4.88;;;3.15;;
14945;SDS011;7567;50.916;6.900;2022-10-12T15:37:55;7.22;;;3.08;;
14945;SDS011;7567;50.916;6.900;2022-10-12T15:40:21;5.28;;;2.95;;
14945;SDS011;7567;50.916;6.900;2022-10-12T15:42:47;8.57;;;3.53;;
14945;SDS011;7567;50.916;6.900;2022-10-12T15:45:21;5.82;;;3.40;;
14945;SDS011;7567;50.916;6.900;2022-10-12T15:47:52;6.13;;;3.50;;
14945;SDS011;7567;50.916;6.900;2022-10-12T15:50:20;7.20;;;3.42;;
14945;SDS011;7567;50.916;6.900;2022-10-12T15:52:48;5.82;;;3.25;;
14945;SDS011;7567;50.916;6.900;2022-10-12T15:55:18;8.10;;;3.58;;
14945;SDS011;7567;50.916;6.900;2022-10-12T15:57:46;6.47;;;3.95;;
14945;SDS011;7567;50.916;6.900;2022-10-12T16:00:13;6.25;;;3.30;;
14945;SDS011;7567;50.916;6.900;2022-10-12T16:02:42;5.90;;;3.40;;
14945;SDS011;7567;50.916;6.900;2022-10-12T16:05:19;6.97;;;3.17;;
14945;SDS011;7567;50.916;6.900;2022-10-12T16:07:45;7.13;;;3.40;;
14945;SDS011;7567;50.916;6.900;2022-10-12T16:10:12;9.43;;;3.60;;
14945;SDS011;7567;50.916;6.900;2022-10-12T16:12:46;5.88;;;3.50;;
14945;SDS011;7567;50.916;6.900;2022-10-12T16:15:14;8.02;;;3.35;;
14945;SDS011;7567;50.916;6.900;2022-10-12T16:17:45;5.25;;;3.00;;
14945;SDS011;7567;50.916;6.900;2022-10-12T16:20:11;5.95;;;3.42;;
14945;SDS011;7567;50.916;6.900;2022-10-12T16:22:37;6.40;;;3.85;;
14945;SDS011;7567;50.916;6.900;2022-10-12T16:25:05;6.55;;;3.40;;
14945;SDS011;7567;50.916;6.900;2022-10-12T16:27:32;7.47;;;3.13;;
14945;SDS011;7567;50.916;6.900;2022-10-12T16:29:58;5.63;;;3.53;;
14945;SDS011;7567;50.916;6.900;2022-10-12T16:32:24;6.97;;;3.58;;
14945;SDS011;7567;50.916;6.900;2022-10-12T16:34:51;5.18;;;3.58;;
14945;SDS011;7567;50.916;6.900;2022-10-12T16:37:17;6.68;;;3.67;;
14945;SDS011;7567;50.916;6.900;2022-10-12T16:39:42;6.40;;;3.20;;
14945;SDS011;7567;50.916;6.900;2022-10-12T16:42:08;7.00;;;3.63;;
14945;SDS011;7567;50.916;6.900;2022-10-12T16:44:34;8.73;;;4.50;;
14945;SDS011;7567;50.916;6.900;2022-10-12T16:47:00;6.55;;;3.83;;
14945;SDS011;7567;50.916;6.900;2022-10-12T16:49:27;5.68;;;3.63;;
14945;SDS011;7567;50.916;6.900;2022-10-12T16:51:53;6.57;;;4.05;;
14945;SDS011;7567;50.916;6.900;2022-10-12T16:54:19;8.10;;;3.80;;
14945;SDS011;7567;50.916;6.900;2022-10-12T16:56:45;6.18;;;3.88;;
14945;SDS011;7567;50.916;6.900;2022-10-12T16:59:11;7.80;;;4.10;;
14945;SDS011;7567;50.916;6.900;2022-10-12T17:01:37;8.27;;;4.30;;
14945;SDS011;7567;50.916;6.900;2022-10-12T17:04:05;8.18;;;4.07;;
14945;SDS011;7567;50.916;6.900;2022-10-12T17:06:31;7.20;;;3.72;;
14945;SDS011;7567;50.916;6.900;2022-10-12T17:08:57;6.05;;;3.60;;
14945;SDS011;7567;50.916;6.900;2022-10-12T17:11:23;6.88;;;3.90;;
14945;SDS011;7567;50.916;6.900;2022-10-12T17:13:49;7.70;;;4.68;;
14945;SDS011;7567;50.916;6.900;2022-10-12T17:16:16;6.50;;;4.07;;
14945;SDS011;7567;50.916;6.900;2022-10-12T17:19:01;8.02;;;4.78;;
14945;SDS011;7567;50.916;6.900;2022-10-12T17:21:27;9.60;;;4.03;;
14945;SDS011;7567;50.916;6.900;2022-10-12T17:23:57;8.25;;;4.00;;
14945;SDS011;7567;50.916;6.900;2022-10-12T17:26:23;7.15;;;4.13;;